FNA225 BIKF-BIAR
Flight info
| Callsign | FNA225 |
|---|---|
| Flight time | 0h 45m |
| Altitude | 21000 |
| Route | LUTER2A LUTER DCT ASKUR |
| Aircraft | BE20/L-SBGRY/S |
Departure
| Time | 2026-04-24 14:06 |
|---|---|
| Airport | Keflavik International Airport (BIKF) |
Arrival
| Time | 2026-04-24 14:51 |
|---|---|
| Airport | Akureyri International Airport (BIAR) |
| Time | Latitude | Longitude | Altitude | Speed | Heading |
|---|---|---|---|---|---|
| 2026-04-24 13:48 | 63.97486 | -22.58999 | 168 ft | 0 kts | 112° |
| 2026-04-24 13:54 | 63.97485 | -22.58994 | 168 ft | 1 kts | 113° |
| 2026-04-24 13:55 | 63.97475 | -22.59021 | 168 ft | 6 kts | 317° |
| 2026-04-24 13:55 | 63.97507 | -22.59121 | 170 ft | 10 kts | 289° |
| 2026-04-24 13:55 | 63.97448 | -22.59211 | 170 ft | 16 kts | 200° |
| 2026-04-24 13:55 | 63.97324 | -22.59315 | 168 ft | 22 kts | 200° |
| 2026-04-24 13:56 | 63.97218 | -22.59464 | 166 ft | 12 kts | 275° |
| 2026-04-24 13:56 | 63.97261 | -22.59696 | 166 ft | 22 kts | 292° |
| 2026-04-24 13:56 | 63.97326 | -22.60047 | 167 ft | 25 kts | 289° |
| 2026-04-24 13:56 | 63.97373 | -22.60318 | 167 ft | 0 kts | 290° |
| 2026-04-24 14:03 | 63.97377 | -22.60343 | 167 ft | 10 kts | 290° |
| 2026-04-24 14:03 | 63.97470 | -22.60541 | 168 ft | 20 kts | 356° |
| 2026-04-24 14:03 | 63.97485 | -22.60542 | 169 ft | 0 kts | 360° |
| 2026-04-24 14:04 | 63.97530 | -22.60544 | 169 ft | 41 kts | 1° |
| 2026-04-24 14:05 | 63.97727 | -22.60543 | 168 ft | 2 kts | 1° |
| 2026-04-24 14:05 | 63.97803 | -22.60542 | 169 ft | 53 kts | 0° |
| 2026-04-24 14:06 | 63.98495 | -22.60547 | 184 ft | 136 kts | 359° |
| 2026-04-24 14:06 | 63.99561 | -22.60476 | 572 ft | 164 kts | 1° |
| 2026-04-24 14:06 | 64.00707 | -22.60327 | 1337 ft | 165 kts | 3° |
| 2026-04-24 14:06 | 64.01869 | -22.60221 | 2058 ft | 169 kts | 1° |
| 2026-04-24 14:07 | 64.03023 | -22.60178 | 2839 ft | 164 kts | 3° |
| 2026-04-24 14:07 | 64.04134 | -22.60100 | 3728 ft | 161 kts | 2° |
| 2026-04-24 14:07 | 64.05258 | -22.59798 | 4425 ft | 163 kts | 14° |
| 2026-04-24 14:07 | 64.06221 | -22.58438 | 5223 ft | 163 kts | 41° |
| 2026-04-24 14:08 | 64.06842 | -22.56338 | 6064 ft | 164 kts | 69° |
| 2026-04-24 14:08 | 64.07000 | -22.53642 | 6700 ft | 177 kts | 93° |
| 2026-04-24 14:08 | 64.06763 | -22.50853 | 7405 ft | 179 kts | 103° |
| 2026-04-24 14:08 | 64.06608 | -22.47934 | 7932 ft | 188 kts | 88° |
| 2026-04-24 14:09 | 64.06479 | -22.44995 | 8702 ft | 185 kts | 96° |
| 2026-04-24 14:09 | 64.06372 | -22.42076 | 9437 ft | 184 kts | 91° |
| 2026-04-24 14:09 | 64.06355 | -22.39147 | 10154 ft | 184 kts | 84° |
| 2026-04-24 14:09 | 64.06477 | -22.36225 | 10803 ft | 186 kts | 82° |
| 2026-04-24 14:10 | 64.06591 | -22.33267 | 11442 ft | 188 kts | 84° |
| 2026-04-24 14:10 | 64.06675 | -22.30317 | 12068 ft | 189 kts | 84° |
| 2026-04-24 14:10 | 64.06773 | -22.27298 | 12703 ft | 191 kts | 84° |
| 2026-04-24 14:10 | 64.06880 | -22.24252 | 13357 ft | 193 kts | 84° |
| 2026-04-24 14:11 | 64.06979 | -22.21168 | 14011 ft | 195 kts | 84° |
| 2026-04-24 14:11 | 64.07077 | -22.18055 | 14616 ft | 197 kts | 84° |
| 2026-04-24 14:11 | 64.07280 | -22.11789 | 15819 ft | 198 kts | 84° |
| 2026-04-24 14:12 | 64.07377 | -22.08638 | 16425 ft | 199 kts | 84° |
| 2026-04-24 14:12 | 64.07479 | -22.05481 | 17038 ft | 199 kts | 84° |
| 2026-04-24 14:12 | 64.07579 | -22.02319 | 17645 ft | 200 kts | 84° |
| 2026-04-24 14:12 | 64.07677 | -21.99127 | 18262 ft | 202 kts | 84° |
| 2026-04-24 14:13 | 64.07776 | -21.95890 | 18712 ft | 212 kts | 84° |
| 2026-04-24 14:13 | 64.07883 | -21.92350 | 18817 ft | 232 kts | 84° |
| 2026-04-24 14:13 | 64.07996 | -21.88593 | 19076 ft | 239 kts | 84° |
| 2026-04-24 14:13 | 64.08113 | -21.84797 | 19439 ft | 240 kts | 84° |
| 2026-04-24 14:14 | 64.08228 | -21.80986 | 19810 ft | 241 kts | 84° |
| 2026-04-24 14:14 | 64.08340 | -21.77192 | 20120 ft | 245 kts | 84° |
| 2026-04-24 14:14 | 64.08575 | -21.69106 | 20334 ft | 264 kts | 84° |
| 2026-04-24 14:15 | 64.08697 | -21.64850 | 20364 ft | 272 kts | 85° |
| 2026-04-24 14:15 | 64.08822 | -21.60467 | 20378 ft | 278 kts | 85° |
| 2026-04-24 14:15 | 64.08947 | -21.56010 | 20387 ft | 282 kts | 84° |
| 2026-04-24 14:15 | 64.09072 | -21.51511 | 20391 ft | 285 kts | 85° |
| 2026-04-24 14:16 | 64.09196 | -21.46977 | 20389 ft | 286 kts | 85° |
| 2026-04-24 14:16 | 64.09319 | -21.42420 | 20386 ft | 287 kts | 85° |
| 2026-04-24 14:16 | 64.09440 | -21.37904 | 20388 ft | 289 kts | 85° |
| 2026-04-24 14:17 | 64.09689 | -21.28717 | 20391 ft | 289 kts | 85° |
| 2026-04-24 14:17 | 64.09795 | -21.24113 | 20381 ft | 290 kts | 85° |
| 2026-04-24 14:17 | 64.10036 | -21.14869 | 20379 ft | 292 kts | 85° |
| 2026-04-24 14:18 | 64.10152 | -21.10229 | 20376 ft | 292 kts | 85° |
| 2026-04-24 14:18 | 64.10269 | -21.05584 | 20376 ft | 292 kts | 85° |
| 2026-04-24 14:18 | 64.10378 | -21.00937 | 20376 ft | 293 kts | 85° |
| 2026-04-24 14:18 | 64.10492 | -20.96284 | 20377 ft | 293 kts | 85° |
| 2026-04-24 14:19 | 64.10602 | -20.91632 | 20373 ft | 293 kts | 85° |
| 2026-04-24 14:19 | 64.10709 | -20.86972 | 20376 ft | 293 kts | 85° |
| 2026-04-24 14:19 | 64.10817 | -20.82368 | 20368 ft | 293 kts | 85° |
| 2026-04-24 14:19 | 64.10920 | -20.77708 | 20372 ft | 294 kts | 85° |
| 2026-04-24 14:20 | 64.11026 | -20.73037 | 20371 ft | 294 kts | 85° |
| 2026-04-24 14:20 | 64.11129 | -20.68358 | 20368 ft | 294 kts | 85° |
| 2026-04-24 14:20 | 64.11229 | -20.63677 | 20371 ft | 295 kts | 85° |
| 2026-04-24 14:20 | 64.11330 | -20.58991 | 20370 ft | 295 kts | 85° |
| 2026-04-24 14:21 | 64.11428 | -20.54303 | 20369 ft | 295 kts | 85° |
| 2026-04-24 14:21 | 64.11526 | -20.49605 | 20368 ft | 295 kts | 85° |
| 2026-04-24 14:21 | 64.11625 | -20.44916 | 20368 ft | 295 kts | 84° |
| 2026-04-24 14:21 | 64.12030 | -20.40354 | 20367 ft | 292 kts | 68° |
| 2026-04-24 14:22 | 64.12931 | -20.36360 | 20630 ft | 279 kts | 52° |
| 2026-04-24 14:22 | 64.14209 | -20.33201 | 21102 ft | 264 kts | 39° |
| 2026-04-24 14:22 | 64.17060 | -20.28282 | 21853 ft | 255 kts | 29° |
| 2026-04-24 14:23 | 64.18567 | -20.26129 | 22125 ft | 256 kts | 31° |
| 2026-04-24 14:23 | 64.20053 | -20.23857 | 22393 ft | 257 kts | 31° |
| 2026-04-24 14:23 | 64.21562 | -20.21634 | 22664 ft | 258 kts | 30° |
| 2026-04-24 14:23 | 64.23071 | -20.19387 | 22939 ft | 259 kts | 31° |
| 2026-04-24 14:24 | 64.24583 | -20.17118 | 23213 ft | 260 kts | 31° |
| 2026-04-24 14:24 | 64.26102 | -20.14858 | 23472 ft | 261 kts | 31° |
| 2026-04-24 14:24 | 64.27622 | -20.12580 | 23741 ft | 261 kts | 31° |
| 2026-04-24 14:24 | 64.29131 | -20.10318 | 23999 ft | 262 kts | 31° |
| 2026-04-24 14:25 | 64.30658 | -20.08030 | 24227 ft | 262 kts | 30° |
| 2026-04-24 14:25 | 64.32191 | -20.05729 | 24444 ft | 263 kts | 30° |
| 2026-04-24 14:25 | 64.33727 | -20.03417 | 24657 ft | 264 kts | 30° |
| 2026-04-24 14:25 | 64.35266 | -20.01101 | 24860 ft | 264 kts | 30° |
| 2026-04-24 14:26 | 64.36807 | -19.98777 | 25062 ft | 265 kts | 30° |
| 2026-04-24 14:26 | 64.38354 | -19.96440 | 25252 ft | 266 kts | 30° |
| 2026-04-24 14:26 | 64.39903 | -19.94100 | 25435 ft | 266 kts | 30° |
| 2026-04-24 14:26 | 64.41453 | -19.91751 | 25613 ft | 267 kts | 30° |
| 2026-04-24 14:27 | 64.43008 | -19.89395 | 25788 ft | 267 kts | 30° |
| 2026-04-24 14:27 | 64.44566 | -19.87032 | 25957 ft | 268 kts | 30° |
| 2026-04-24 14:27 | 64.46124 | -19.84658 | 26109 ft | 268 kts | 30° |
| 2026-04-24 14:27 | 64.47666 | -19.82313 | 26249 ft | 269 kts | 30° |
| 2026-04-24 14:28 | 64.49233 | -19.79926 | 26390 ft | 269 kts | 30° |
| 2026-04-24 14:28 | 64.50798 | -19.77535 | 26525 ft | 270 kts | 30° |
| 2026-04-24 14:28 | 64.52365 | -19.75139 | 26663 ft | 270 kts | 30° |
| 2026-04-24 14:28 | 64.53937 | -19.72733 | 26793 ft | 270 kts | 30° |
| 2026-04-24 14:29 | 64.55511 | -19.70320 | 26921 ft | 271 kts | 30° |
| 2026-04-24 14:29 | 64.57085 | -19.67905 | 27048 ft | 271 kts | 30° |
| 2026-04-24 14:29 | 64.58660 | -19.65482 | 27166 ft | 271 kts | 30° |
| 2026-04-24 14:29 | 64.60237 | -19.63056 | 27280 ft | 272 kts | 30° |
| 2026-04-24 14:30 | 64.61282 | -19.61445 | 27353 ft | 272 kts | 30° |
| 2026-04-24 14:30 | 64.63397 | -19.58180 | 27493 ft | 273 kts | 29° |
| 2026-04-24 14:30 | 64.64978 | -19.55735 | 27596 ft | 273 kts | 29° |
| 2026-04-24 14:30 | 64.66561 | -19.53285 | 27686 ft | 273 kts | 29° |
| 2026-04-24 14:31 | 64.68147 | -19.50827 | 27773 ft | 273 kts | 29° |
| 2026-04-24 14:31 | 64.69714 | -19.48393 | 27864 ft | 274 kts | 29° |
| 2026-04-24 14:31 | 64.71302 | -19.45924 | 27936 ft | 274 kts | 29° |
| 2026-04-24 14:31 | 64.72888 | -19.43454 | 28018 ft | 274 kts | 29° |
| 2026-04-24 14:32 | 64.74481 | -19.40971 | 28096 ft | 275 kts | 29° |
| 2026-04-24 14:32 | 64.76071 | -19.38487 | 28176 ft | 275 kts | 29° |
| 2026-04-24 14:32 | 64.77663 | -19.35998 | 28253 ft | 275 kts | 29° |
| 2026-04-24 14:32 | 64.79257 | -19.33502 | 28320 ft | 275 kts | 29° |
| 2026-04-24 14:33 | 64.80852 | -19.30999 | 28394 ft | 275 kts | 28° |
| 2026-04-24 14:33 | 64.82446 | -19.28498 | 28452 ft | 276 kts | 28° |
| 2026-04-24 14:33 | 64.84039 | -19.25991 | 28509 ft | 276 kts | 28° |
| 2026-04-24 14:33 | 64.85637 | -19.23473 | 28570 ft | 276 kts | 28° |
| 2026-04-24 14:34 | 64.87238 | -19.20951 | 28590 ft | 278 kts | 28° |
| 2026-04-24 14:34 | 64.88845 | -19.18409 | 28599 ft | 279 kts | 28° |
| 2026-04-24 14:34 | 64.90460 | -19.15853 | 28604 ft | 280 kts | 28° |
| 2026-04-24 14:34 | 64.92082 | -19.13284 | 28608 ft | 281 kts | 28° |
| 2026-04-24 14:35 | 64.93708 | -19.10704 | 28607 ft | 282 kts | 28° |
| 2026-04-24 14:35 | 64.95317 | -19.08146 | 28606 ft | 283 kts | 28° |
| 2026-04-24 14:35 | 64.96901 | -19.05372 | 28610 ft | 287 kts | 37° |
| 2026-04-24 14:35 | 64.98316 | -19.02008 | 28608 ft | 290 kts | 40° |
| 2026-04-24 14:36 | 64.99685 | -18.98512 | 28612 ft | 289 kts | 39° |
| 2026-04-24 14:36 | 65.01138 | -18.95304 | 28614 ft | 287 kts | 36° |
| 2026-04-24 14:36 | 65.02591 | -18.92036 | 28610 ft | 289 kts | 38° |
| 2026-04-24 14:36 | 65.04039 | -18.88743 | 28611 ft | 288 kts | 37° |
| 2026-04-24 14:37 | 65.05577 | -18.85749 | 28618 ft | 283 kts | 26° |
| 2026-04-24 14:37 | 65.07172 | -18.82992 | 28618 ft | 288 kts | 36° |
| 2026-04-24 14:37 | 65.08658 | -18.79803 | 28614 ft | 288 kts | 36° |
| 2026-04-24 14:37 | 65.10121 | -18.76552 | 28618 ft | 289 kts | 37° |
| 2026-04-24 14:38 | 65.11579 | -18.73248 | 28622 ft | 289 kts | 37° |
| 2026-04-24 14:38 | 65.13026 | -18.69932 | 28620 ft | 289 kts | 37° |
| 2026-04-24 14:38 | 65.14452 | -18.66642 | 28625 ft | 290 kts | 37° |
| 2026-04-24 14:38 | 65.15867 | -18.63210 | 28623 ft | 290 kts | 37° |
| 2026-04-24 14:39 | 65.17332 | -18.59934 | 28624 ft | 290 kts | 37° |
| 2026-04-24 14:39 | 65.18778 | -18.56474 | 28099 ft | 300 kts | 39° |
| 2026-04-24 14:39 | 65.20287 | -18.52916 | 26980 ft | 306 kts | 38° |
| 2026-04-24 14:39 | 65.21802 | -18.49378 | 26135 ft | 304 kts | 39° |
| 2026-04-24 14:40 | 65.23289 | -18.45855 | 25347 ft | 300 kts | 39° |
| 2026-04-24 14:40 | 65.24770 | -18.42367 | 24586 ft | 298 kts | 39° |
| 2026-04-24 14:40 | 65.26235 | -18.38900 | 23817 ft | 295 kts | 39° |
| 2026-04-24 14:40 | 65.27689 | -18.35448 | 22973 ft | 293 kts | 39° |
| 2026-04-24 14:41 | 65.29110 | -18.32079 | 22188 ft | 290 kts | 39° |
| 2026-04-24 14:41 | 65.30537 | -18.28688 | 21384 ft | 288 kts | 39° |
| 2026-04-24 14:41 | 65.31953 | -18.25312 | 20623 ft | 286 kts | 39° |
| 2026-04-24 14:41 | 65.33278 | -18.22153 | 19973 ft | 284 kts | 39° |
| 2026-04-24 14:42 | 65.34220 | -18.19904 | 19512 ft | 282 kts | 39° |
| 2026-04-24 14:42 | 65.36063 | -18.15496 | 18563 ft | 281 kts | 39° |
| 2026-04-24 14:42 | 65.37438 | -18.12201 | 17849 ft | 277 kts | 39° |
| 2026-04-24 14:42 | 65.38796 | -18.08968 | 17153 ft | 273 kts | 38° |
| 2026-04-24 14:43 | 65.39902 | -18.05251 | 16465 ft | 282 kts | 66° |
| 2026-04-24 14:43 | 65.40017 | -18.00544 | 15799 ft | 289 kts | 102° |
| 2026-04-24 14:43 | 65.39076 | -17.96349 | 15153 ft | 287 kts | 136° |
| 2026-04-24 14:43 | 65.37399 | -17.94007 | 14527 ft | 277 kts | 171° |
| 2026-04-24 14:44 | 65.35552 | -17.94175 | 13862 ft | 261 kts | 205° |
| 2026-04-24 14:44 | 65.34544 | -17.95597 | 13407 ft | 250 kts | 228° |
| 2026-04-24 14:44 | 65.33675 | -18.00310 | 12469 ft | 234 kts | 275° |
| 2026-04-24 14:44 | 65.34234 | -18.03846 | 11781 ft | 230 kts | 311° |
| 2026-04-24 14:45 | 65.35594 | -18.05729 | 11121 ft | 232 kts | 348° |
| 2026-04-24 14:45 | 65.37213 | -18.05649 | 10482 ft | 233 kts | 4° |
| 2026-04-24 14:45 | 65.38302 | -18.05370 | 10055 ft | 232 kts | 4° |
| 2026-04-24 14:45 | 65.39876 | -18.05073 | 9454 ft | 228 kts | 2° |
| 2026-04-24 14:46 | 65.41446 | -18.05195 | 8832 ft | 224 kts | 355° |
| 2026-04-24 14:46 | 65.42994 | -18.05430 | 8252 ft | 221 kts | 359° |
| 2026-04-24 14:46 | 65.44491 | -18.04867 | 7631 ft | 217 kts | 12° |
| 2026-04-24 14:46 | 65.46008 | -18.04841 | 6982 ft | 218 kts | 0° |
| 2026-04-24 14:47 | 65.47503 | -18.04957 | 6443 ft | 213 kts | 3° |
| 2026-04-24 14:47 | 65.48986 | -18.04859 | 5762 ft | 214 kts | 5° |
| 2026-04-24 14:47 | 65.50481 | -18.04839 | 5106 ft | 213 kts | 358° |
| 2026-04-24 14:47 | 65.51952 | -18.04964 | 4428 ft | 211 kts | 359° |
| 2026-04-24 14:48 | 65.53392 | -18.05197 | 4046 ft | 202 kts | 359° |
| 2026-04-24 14:48 | 65.54761 | -18.05416 | 3726 ft | 194 kts | 358° |
| 2026-04-24 14:48 | 65.56071 | -18.05580 | 3367 ft | 187 kts | 1° |
| 2026-04-24 14:48 | 65.57329 | -18.05737 | 2996 ft | 177 kts | 359° |
| 2026-04-24 14:49 | 65.58539 | -18.05955 | 2284 ft | 169 kts | 358° |
| 2026-04-24 14:49 | 65.59675 | -18.06072 | 1742 ft | 155 kts | 0° |
| 2026-04-24 14:49 | 65.60619 | -18.06217 | 1427 ft | 122 kts | 357° |
| 2026-04-24 14:49 | 65.61402 | -18.06377 | 1170 ft | 104 kts | 358° |
| 2026-04-24 14:50 | 65.62112 | -18.06534 | 966 ft | 107 kts | 356° |
| 2026-04-24 14:50 | 65.62845 | -18.06679 | 717 ft | 105 kts | 358° |
| 2026-04-24 14:50 | 65.63540 | -18.06807 | 507 ft | 98 kts | 359° |
| 2026-04-24 14:50 | 65.64199 | -18.06922 | 227 ft | 93 kts | 355° |
| 2026-04-24 14:51 | 65.64820 | -18.07043 | 28 ft | 85 kts | 356° |
| 2026-04-24 14:51 | 65.65337 | -18.07135 | 17 ft | 68 kts | 354° |
| 2026-04-24 14:51 | 65.65622 | -18.07198 | 16 ft | 20 kts | 354° |
| 2026-04-24 14:51 | 65.65722 | -18.07219 | 16 ft | 10 kts | 287° |
| 2026-04-24 14:52 | 65.65638 | -18.07200 | 16 ft | 30 kts | 175° |
| 2026-04-24 14:52 | 65.65491 | -18.07206 | 16 ft | 14 kts | 222° |
| 2026-04-24 14:52 | 65.65476 | -18.07400 | 17 ft | 3 kts | 262° |
| 2026-04-24 14:52 | 65.65437 | -18.07454 | 17 ft | 9 kts | 253° |
| 2026-04-24 14:53 | 65.65383 | -18.07521 | 17 ft | 8 kts | 239° |
| 2026-04-24 14:53 | 65.65376 | -18.07711 | 17 ft | 11 kts | 261° |
| 2026-04-24 14:53 | 65.65373 | -18.07757 | 17 ft | 1 kts | 261° |
| 2026-04-24 14:53 | 65.65358 | -18.07780 | 17 ft | 0 kts | 171° |
| 2026-04-24 14:54 | 65.65322 | -18.07774 | 17 ft | 8 kts | 184° |
| 2026-04-24 14:54 | 65.65300 | -18.07787 | 17 ft | 1 kts | 167° |
| 2026-04-24 14:54 | 65.65298 | -18.07772 | 17 ft | 4 kts | 11° |
| 2026-04-24 14:54 | 65.65308 | -18.07776 | 17 ft | 0 kts | 354° |
| 2026-04-24 14:58 | 65.65448 | -18.07482 | 17 ft | 0 kts | 26° |